sensor_id;sensor_type;location;lat;lon;timestamp;pressure;altitude;pressure_sealevel;temperature
15701;BMP180;7950;42.744;23.174;2023-05-29T00:01:26;94174.34;;;13.76
15701;BMP180;7950;42.744;23.174;2023-05-29T00:03:54;94182.03;;;13.68
15701;BMP180;7950;42.744;23.174;2023-05-29T00:06:24;94183.41;;;13.60
15701;BMP180;7950;42.744;23.174;2023-05-29T00:08:52;94187.09;;;13.59
15701;BMP180;7950;42.744;23.174;2023-05-29T00:11:22;94181.56;;;13.61
15701;BMP180;7950;42.744;23.174;2023-05-29T00:13:51;94182.91;;;13.58
15701;BMP180;7950;42.744;23.174;2023-05-29T00:16:19;94176.72;;;13.29
15701;BMP180;7950;42.744;23.174;2023-05-29T00:18:48;94194.19;;;13.15
15701;BMP180;7950;42.744;23.174;2023-05-29T00:21:19;94187.66;;;13.03
15701;BMP180;7950;42.744;23.174;2023-05-29T00:23:48;94196.09;;;13.00
15701;BMP180;7950;42.744;23.174;2023-05-29T00:26:16;94186.59;;;13.09
15701;BMP180;7950;42.744;23.174;2023-05-29T00:28:46;94190.84;;;13.00
15701;BMP180;7950;42.744;23.174;2023-05-29T00:31:14;94180.31;;;13.00
15701;BMP180;7950;42.744;23.174;2023-05-29T00:33:43;94174.78;;;12.96
15701;BMP180;7950;42.744;23.174;2023-05-29T00:36:12;94187.13;;;12.96
15701;BMP180;7950;42.744;23.174;2023-05-29T00:38:40;94185.31;;;12.86
15701;BMP180;7950;42.744;23.174;2023-05-29T00:41:14;94186.59;;;12.94
15701;BMP180;7950;42.744;23.174;2023-05-29T00:43:43;94183.22;;;12.88
15701;BMP180;7950;42.744;23.174;2023-05-29T00:46:15;94192.16;;;12.82
15701;BMP180;7950;42.744;23.174;2023-05-29T00:48:44;94181.41;;;12.74
15701;BMP180;7950;42.744;23.174;2023-05-29T00:51:14;94186.94;;;12.77
15701;BMP180;7950;42.744;23.174;2023-05-29T00:53:44;94178.25;;;12.82
15701;BMP180;7950;42.744;23.174;2023-05-29T00:56:13;94182.19;;;12.84
15701;BMP180;7950;42.744;23.174;2023-05-29T00:58:42;94177.44;;;12.81
15701;BMP180;7950;42.744;23.174;2023-05-29T01:01:12;94169.84;;;12.70
15701;BMP180;7950;42.744;23.174;2023-05-29T01:03:42;94174.91;;;12.61
15701;BMP180;7950;42.744;23.174;2023-05-29T01:06:11;94165.19;;;12.52
15701;BMP180;7950;42.744;23.174;2023-05-29T01:08:39;94170.19;;;12.48
15701;BMP180;7950;42.744;23.174;2023-05-29T01:11:19;94174.34;;;12.59
15701;BMP180;7950;42.744;23.174;2023-05-29T01:13:52;94175.41;;;12.63
15701;BMP180;7950;42.744;23.174;2023-05-29T01:16:32;94165.41;;;12.60
15701;BMP180;7950;42.744;23.174;2023-05-29T01:19:17;94173.59;;;12.49
15701;BMP180;7950;42.744;23.174;2023-05-29T01:22:04;94178.34;;;12.42
15701;BMP180;7950;42.744;23.174;2023-05-29T01:24:48;94191.22;;;12.48
15701;BMP180;7950;42.744;23.174;2023-05-29T01:27:24;94186.75;;;12.49
15701;BMP180;7950;42.744;23.174;2023-05-29T01:29:56;94189.38;;;12.49
15701;BMP180;7950;42.744;23.174;2023-05-29T01:32:26;94187.00;;;12.57
15701;BMP180;7950;42.744;23.174;2023-05-29T01:34:55;94193.28;;;12.56
15701;BMP180;7950;42.744;23.174;2023-05-29T01:37:23;94191.19;;;12.63
15701;BMP180;7950;42.744;23.174;2023-05-29T01:39:52;94192.00;;;12.64
15701;BMP180;7950;42.744;23.174;2023-05-29T01:42:22;94192.53;;;12.56
15701;BMP180;7950;42.744;23.174;2023-05-29T01:44:51;94197.53;;;12.57
15701;BMP180;7950;42.744;23.174;2023-05-29T01:47:20;94193.34;;;12.41
15701;BMP180;7950;42.744;23.174;2023-05-29T01:49:51;94182.25;;;12.54
15701;BMP180;7950;42.744;23.174;2023-05-29T01:52:20;94191.22;;;12.53
15701;BMP180;7950;42.744;23.174;2023-05-29T01:54:48;94182.28;;;12.44
15701;BMP180;7950;42.744;23.174;2023-05-29T01:57:18;94182.78;;;12.56
15701;BMP180;7950;42.744;23.174;2023-05-29T01:59:49;94178.09;;;12.48
15701;BMP180;7950;42.744;23.174;2023-05-29T02:02:17;94178.38;;;12.37
15701;BMP180;7950;42.744;23.174;2023-05-29T02:04:46;94170.22;;;12.43
15701;BMP180;7950;42.744;23.174;2023-05-29T02:07:15;94170.75;;;12.30
15701;BMP180;7950;42.744;23.174;2023-05-29T02:09:44;94173.91;;;12.27
15701;BMP180;7950;42.744;23.174;2023-05-29T02:12:12;94167.06;;;12.31
15701;BMP180;7950;42.744;23.174;2023-05-29T02:14:41;94165.50;;;12.30
15701;BMP180;7950;42.744;23.174;2023-05-29T02:17:10;94160.97;;;12.41
15701;BMP180;7950;42.744;23.174;2023-05-29T02:19:39;94170.97;;;12.44
15701;BMP180;7950;42.744;23.174;2023-05-29T02:22:08;94160.72;;;12.52
15701;BMP180;7950;42.744;23.174;2023-05-29T02:24:36;94156.50;;;12.46
15701;BMP180;7950;42.744;23.174;2023-05-29T02:27:05;94163.34;;;12.52
15701;BMP180;7950;42.744;23.174;2023-05-29T02:29:34;94169.63;;;12.56
15701;BMP180;7950;42.744;23.174;2023-05-29T02:32:03;94176.22;;;12.49
15701;BMP180;7950;42.744;23.174;2023-05-29T02:34:33;94178.84;;;12.49
15701;BMP180;7950;42.744;23.174;2023-05-29T02:37:02;94173.31;;;12.50
15701;BMP180;7950;42.744;23.174;2023-05-29T02:39:31;94160.69;;;12.57
15701;BMP180;7950;42.744;23.174;2023-05-29T02:41:59;94168.59;;;12.52
15701;BMP180;7950;42.744;23.174;2023-05-29T02:44:28;94175.44;;;12.53
15701;BMP180;7950;42.744;23.174;2023-05-29T02:46:56;94177.03;;;12.49
15701;BMP180;7950;42.744;23.174;2023-05-29T02:49:25;94165.19;;;12.47
15701;BMP180;7950;42.744;23.174;2023-05-29T02:51:55;94173.59;;;12.44
15701;BMP180;7950;42.744;23.174;2023-05-29T02:54:24;94169.94;;;12.40
15701;BMP180;7950;42.744;23.174;2023-05-29T02:56:52;94175.19;;;12.40
15701;BMP180;7950;42.744;23.174;2023-05-29T02:59:21;94177.03;;;12.44
15701;BMP180;7950;42.744;23.174;2023-05-29T03:01:50;94171.78;;;12.39
15701;BMP180;7950;42.744;23.174;2023-05-29T03:04:19;94175.22;;;12.25
15701;BMP180;7950;42.744;23.174;2023-05-29T03:06:47;94172.84;;;12.33
15701;BMP180;7950;42.744;23.174;2023-05-29T03:09:17;94173.91;;;12.27
15701;BMP180;7950;42.744;23.174;2023-05-29T03:11:46;94175.25;;;12.15
15701;BMP180;7950;42.744;23.174;2023-05-29T03:14:16;94174.72;;;12.08
15701;BMP180;7950;42.744;23.174;2023-05-29T03:16:45;94174.47;;;12.09
15701;BMP180;7950;42.744;23.174;2023-05-29T03:19:14;94181.28;;;12.15
15701;BMP180;7950;42.744;23.174;2023-05-29T03:21:43;94182.84;;;12.16
15701;BMP180;7950;42.744;23.174;2023-05-29T03:24:12;94187.06;;;12.17
15701;BMP180;7950;42.744;23.174;2023-05-29T03:26:43;94182.56;;;12.28
15701;BMP180;7950;42.744;23.174;2023-05-29T03:29:11;94173.38;;;12.20
15701;BMP180;7950;42.744;23.174;2023-05-29T03:31:40;94178.38;;;12.22
15701;BMP180;7950;42.744;23.174;2023-05-29T03:34:08;94183.38;;;12.18
15701;BMP180;7950;42.744;23.174;2023-05-29T03:36:37;94182.06;;;12.21
15701;BMP180;7950;42.744;23.174;2023-05-29T03:39:05;94189.72;;;12.17
15701;BMP180;7950;42.744;23.174;2023-05-29T03:41:34;94198.63;;;12.26
15701;BMP180;7950;42.744;23.174;2023-05-29T03:44:04;94189.94;;;12.31
15701;BMP180;7950;42.744;23.174;2023-05-29T03:46:33;94201.22;;;12.46
15701;BMP180;7950;42.744;23.174;2023-05-29T03:49:01;94209.09;;;12.51
15701;BMP180;7950;42.744;23.174;2023-05-29T03:51:30;94210.66;;;12.62
15701;BMP180;7950;42.744;23.174;2023-05-29T03:53:58;94209.09;;;12.66
15701;BMP180;7950;42.744;23.174;2023-05-29T03:56:27;94210.13;;;12.65
15701;BMP180;7950;42.744;23.174;2023-05-29T03:58:56;94217.28;;;12.55
15701;BMP180;7950;42.744;23.174;2023-05-29T04:01:26;94221.19;;;12.62
15701;BMP180;7950;42.744;23.174;2023-05-29T04:03:55;94232.47;;;12.78
15701;BMP180;7950;42.744;23.174;2023-05-29T04:06:23;94226.38;;;12.82
15701;BMP180;7950;42.744;23.174;2023-05-29T04:08:52;94230.63;;;12.83
15701;BMP180;7950;42.744;23.174;2023-05-29T04:11:21;94232.69;;;12.96
15701;BMP180;7950;42.744;23.174;2023-05-29T04:13:49;94231.63;;;13.02
15701;BMP180;7950;42.744;23.174;2023-05-29T04:16:18;94233.72;;;13.10
15701;BMP180;7950;42.744;23.174;2023-05-29T04:18:48;94236.88;;;13.07
15701;BMP180;7950;42.744;23.174;2023-05-29T04:21:17;94234.25;;;13.07
15701;BMP180;7950;42.744;23.174;2023-05-29T04:23:45;94229.19;;;13.16
15701;BMP180;7950;42.744;23.174;2023-05-29T04:26:14;94235.22;;;13.26
15701;BMP180;7950;42.744;23.174;2023-05-29T04:28:42;94237.31;;;13.29
15701;BMP180;7950;42.744;23.174;2023-05-29T04:31:11;94230.22;;;13.30
15701;BMP180;7950;42.744;23.174;2023-05-29T04:33:41;94228.03;;;13.42
15701;BMP180;7950;42.744;23.174;2023-05-29T04:36:14;94230.66;;;13.42
15701;BMP180;7950;42.744;23.174;2023-05-29T04:38:43;94226.63;;;13.59
15701;BMP180;7950;42.744;23.174;2023-05-29T04:41:12;94230.00;;;13.70
15701;BMP180;7950;42.744;23.174;2023-05-29T04:43:40;94239.19;;;13.77
15701;BMP180;7950;42.744;23.174;2023-05-29T04:46:09;94235.38;;;13.88
15701;BMP180;7950;42.744;23.174;2023-05-29T04:48:40;94236.16;;;13.94
15701;BMP180;7950;42.744;23.174;2023-05-29T04:51:09;94241.91;;;14.01
15701;BMP180;7950;42.744;23.174;2023-05-29T04:53:40;94249.53;;;14.07
15701;BMP180;7950;42.744;23.174;2023-05-29T04:56:09;94248.41;;;14.13
15701;BMP180;7950;42.744;23.174;2023-05-29T04:58:38;94233.59;;;14.22
15701;BMP180;7950;42.744;23.174;2023-05-29T05:01:06;94251.22;;;14.32
15701;BMP180;7950;42.744;23.174;2023-05-29T05:03:36;94245.34;;;14.40
15701;BMP180;7950;42.744;23.174;2023-05-29T05:06:05;94251.34;;;14.45
15701;BMP180;7950;42.744;23.174;2023-05-29T05:08:34;94266.09;;;14.51
15701;BMP180;7950;42.744;23.174;2023-05-29T05:11:04;94264.44;;;14.60
15701;BMP180;7950;42.744;23.174;2023-05-29T05:13:34;94265.88;;;14.71
15701;BMP180;7950;42.744;23.174;2023-05-29T05:16:03;94269.72;;;14.84
15701;BMP180;7950;42.744;23.174;2023-05-29T05:18:31;94271.00;;;14.91
15701;BMP180;7950;42.744;23.174;2023-05-29T05:21:00;94275.16;;;14.97
15701;BMP180;7950;42.744;23.174;2023-05-29T05:23:30;94280.09;;;15.04
15701;BMP180;7950;42.744;23.174;2023-05-29T05:26:16;94284.50;;;15.13
15701;BMP180;7950;42.744;23.174;2023-05-29T05:28:45;94280.22;;;15.17
15701;BMP180;7950;42.744;23.174;2023-05-29T05:31:13;94283.03;;;15.26
15701;BMP180;7950;42.744;23.174;2023-05-29T05:33:42;94284.00;;;15.35
15701;BMP180;7950;42.744;23.174;2023-05-29T05:36:10;94285.50;;;15.41
15701;BMP180;7950;42.744;23.174;2023-05-29T05:38:39;94289.69;;;15.47
15701;BMP180;7950;42.744;23.174;2023-05-29T05:41:07;94279.31;;;15.50
15701;BMP180;7950;42.744;23.174;2023-05-29T05:43:38;94289.28;;;15.58
15701;BMP180;7950;42.744;23.174;2023-05-29T05:46:06;94284.94;;;15.67
15701;BMP180;7950;42.744;23.174;2023-05-29T05:48:35;94286.16;;;15.75
15701;BMP180;7950;42.744;23.174;2023-05-29T05:51:04;94295.91;;;15.79
15701;BMP180;7950;42.744;23.174;2023-05-29T05:53:32;94277.88;;;15.81
15701;BMP180;7950;42.744;23.174;2023-05-29T05:56:01;94278.06;;;15.85
15701;BMP180;7950;42.744;23.174;2023-05-29T05:58:29;94293.03;;;15.94
15701;BMP180;7950;42.744;23.174;2023-05-29T06:00:59;94291.84;;;16.05
15701;BMP180;7950;42.744;23.174;2023-05-29T06:03:28;94288.75;;;16.17
15701;BMP180;7950;42.744;23.174;2023-05-29T06:05:57;94289.59;;;16.31
15701;BMP180;7950;42.744;23.174;2023-05-29T06:08:25;94286.53;;;16.42
15701;BMP180;7950;42.744;23.174;2023-05-29T06:10:54;94284.81;;;16.52
15701;BMP180;7950;42.744;23.174;2023-05-29T06:13:23;94281.91;;;16.67
15701;BMP180;7950;42.744;23.174;2023-05-29T06:15:51;94279.22;;;16.85
15701;BMP180;7950;42.744;23.174;2023-05-29T06:18:21;94278.66;;;17.02
15701;BMP180;7950;42.744;23.174;2023-05-29T06:20:50;94287.31;;;17.21
15701;BMP180;7950;42.744;23.174;2023-05-29T06:23:19;94291.25;;;17.37
15701;BMP180;7950;42.744;23.174;2023-05-29T06:25:47;94297.56;;;17.54
15701;BMP180;7950;42.744;23.174;2023-05-29T06:28:16;94296.00;;;17.67
15701;BMP180;7950;42.744;23.174;2023-05-29T06:30:45;94297.34;;;17.78
15701;BMP180;7950;42.744;23.174;2023-05-29T06:33:13;94297.16;;;17.74
15701;BMP180;7950;42.744;23.174;2023-05-29T06:35:43;94296.38;;;17.74
15701;BMP180;7950;42.744;23.174;2023-05-29T06:38:12;94290.34;;;17.82
15701;BMP180;7950;42.744;23.174;2023-05-29T06:40:40;94297.63;;;17.90
15701;BMP180;7950;42.744;23.174;2023-05-29T06:43:09;94296.75;;;17.94
15701;BMP180;7950;42.744;23.174;2023-05-29T06:45:37;94291.25;;;18.26
15701;BMP180;7950;42.744;23.174;2023-05-29T06:48:06;94299.75;;;18.50
15701;BMP180;7950;42.744;23.174;2023-05-29T06:50:35;94296.19;;;18.55
15701;BMP180;7950;42.744;23.174;2023-05-29T06:53:04;94298.44;;;18.61
15701;BMP180;7950;42.744;23.174;2023-05-29T06:55:33;94291.59;;;18.69
15701;BMP180;7950;42.744;23.174;2023-05-29T06:58:02;94298.84;;;18.77
15701;BMP180;7950;42.744;23.174;2023-05-29T07:00:30;94285.47;;;18.90
15701;BMP180;7950;42.744;23.174;2023-05-29T07:02:59;94286.34;;;18.99
15701;BMP180;7950;42.744;23.174;2023-05-29T07:05:28;94290.13;;;19.07
15701;BMP180;7950;42.744;23.174;2023-05-29T07:07:56;94294.34;;;19.30
15701;BMP180;7950;42.744;23.174;2023-05-29T07:10:26;94296.31;;;19.55
15701;BMP180;7950;42.744;23.174;2023-05-29T07:12:54;94293.09;;;19.75
15701;BMP180;7950;42.744;23.174;2023-05-29T07:15:23;94296.91;;;19.91
15701;BMP180;7950;42.744;23.174;2023-05-29T07:17:51;94293.66;;;20.11
15701;BMP180;7950;42.744;23.174;2023-05-29T07:20:20;94290.22;;;20.19
15701;BMP180;7950;42.744;23.174;2023-05-29T07:22:49;94288.97;;;20.25
15701;BMP180;7950;42.744;23.174;2023-05-29T07:25:17;94277.69;;;20.19
15701;BMP180;7950;42.744;23.174;2023-05-29T07:27:47;94291.31;;;20.18
15701;BMP180;7950;42.744;23.174;2023-05-29T07:30:16;94289.41;;;20.01
15701;BMP180;7950;42.744;23.174;2023-05-29T07:32:45;94288.06;;;20.21
15701;BMP180;7950;42.744;23.174;2023-05-29T07:35:14;94289.78;;;20.42
15701;BMP180;7950;42.744;23.174;2023-05-29T07:37:42;94280.03;;;20.38
15701;BMP180;7950;42.744;23.174;2023-05-29T07:40:11;94278.31;;;20.42
15701;BMP180;7950;42.744;23.174;2023-05-29T07:42:39;94280.34;;;20.28
15701;BMP180;7950;42.744;23.174;2023-05-29T07:45:10;94275.19;;;20.40
15701;BMP180;7950;42.744;23.174;2023-05-29T07:47:38;94275.03;;;20.53
15701;BMP180;7950;42.744;23.174;2023-05-29T07:50:08;94283.03;;;20.62
15701;BMP180;7950;42.744;23.174;2023-05-29T07:52:37;94284.56;;;20.80
15701;BMP180;7950;42.744;23.174;2023-05-29T07:55:06;94273.13;;;20.96
15701;BMP180;7950;42.744;23.174;2023-05-29T07:57:35;94276.19;;;21.24
15701;BMP180;7950;42.744;23.174;2023-05-29T08:00:07;94277.25;;;21.40
15701;BMP180;7950;42.744;23.174;2023-05-29T08:02:37;94275.59;;;21.56
15701;BMP180;7950;42.744;23.174;2023-05-29T08:05:07;94278.81;;;21.78
15701;BMP180;7950;42.744;23.174;2023-05-29T08:07:37;94272.91;;;21.93
15701;BMP180;7950;42.744;23.174;2023-05-29T08:10:07;94281.41;;;21.95
15701;BMP180;7950;42.744;23.174;2023-05-29T08:12:36;94277.88;;;21.74
15701;BMP180;7950;42.744;23.174;2023-05-29T08:15:05;94267.06;;;21.62
15701;BMP180;7950;42.744;23.174;2023-05-29T08:17:34;94277.81;;;21.45
15701;BMP180;7950;42.744;23.174;2023-05-29T08:20:06;94279.31;;;21.26
15701;BMP180;7950;42.744;23.174;2023-05-29T08:22:37;94274.81;;;21.18
15701;BMP180;7950;42.744;23.174;2023-05-29T08:25:06;94275.78;;;20.88
15701;BMP180;7950;42.744;23.174;2023-05-29T08:27:35;94268.41;;;20.85
15701;BMP180;7950;42.744;23.174;2023-05-29T08:30:05;94273.88;;;20.88
15701;BMP180;7950;42.744;23.174;2023-05-29T08:32:33;94273.13;;;20.88
15701;BMP180;7950;42.744;23.174;2023-05-29T08:35:04;94282.19;;;20.87
15701;BMP180;7950;42.744;23.174;2023-05-29T08:37:32;94282.69;;;20.72
15701;BMP180;7950;42.744;23.174;2023-05-29T08:40:01;94280.50;;;20.65
15701;BMP180;7950;42.744;23.174;2023-05-29T08:42:42;94280.97;;;20.59
15701;BMP180;7950;42.744;23.174;2023-05-29T08:45:14;94273.00;;;20.42
15701;BMP180;7950;42.744;23.174;2023-05-29T08:47:44;94276.44;;;20.59
15701;BMP180;7950;42.744;23.174;2023-05-29T08:50:16;94270.31;;;20.76
15701;BMP180;7950;42.744;23.174;2023-05-29T08:52:45;94263.56;;;20.95
15701;BMP180;7950;42.744;23.174;2023-05-29T08:55:14;94256.28;;;21.21
15701;BMP180;7950;42.744;23.174;2023-05-29T08:57:43;94271.41;;;21.38
15701;BMP180;7950;42.744;23.174;2023-05-29T09:00:13;94258.22;;;21.41
15701;BMP180;7950;42.744;23.174;2023-05-29T09:02:45;94254.31;;;21.39
15701;BMP180;7950;42.744;23.174;2023-05-29T09:05:15;94258.63;;;21.23
15701;BMP180;7950;42.744;23.174;2023-05-29T09:07:44;94256.94;;;21.01
15701;BMP180;7950;42.744;23.174;2023-05-29T09:10:14;94261.34;;;20.89
15701;BMP180;7950;42.744;23.174;2023-05-29T09:12:43;94256.66;;;20.69
15701;BMP180;7950;42.744;23.174;2023-05-29T09:15:18;94253.50;;;20.75
15701;BMP180;7950;42.744;23.174;2023-05-29T09:17:51;94245.06;;;20.90
15701;BMP180;7950;42.744;23.174;2023-05-29T09:20:23;94241.44;;;20.95
15701;BMP180;7950;42.744;23.174;2023-05-29T09:22:56;94240.44;;;21.08
15701;BMP180;7950;42.744;23.174;2023-05-29T09:25:27;94229.72;;;21.25
15701;BMP180;7950;42.744;23.174;2023-05-29T09:27:59;94221.38;;;21.64
15701;BMP180;7950;42.744;23.174;2023-05-29T09:30:36;94223.25;;;21.63
15701;BMP180;7950;42.744;23.174;2023-05-29T09:33:07;94221.28;;;21.52
15701;BMP180;7950;42.744;23.174;2023-05-29T09:35:39;94215.50;;;21.79
15701;BMP180;7950;42.744;23.174;2023-05-29T09:38:09;94210.97;;;22.00
15701;BMP180;7950;42.744;23.174;2023-05-29T09:40:50;94202.69;;;22.34
15701;BMP180;7950;42.744;23.174;2023-05-29T09:43:22;94206.31;;;22.50
15701;BMP180;7950;42.744;23.174;2023-05-29T09:45:51;94213.59;;;22.49
15701;BMP180;7950;42.744;23.174;2023-05-29T09:48:23;94204.66;;;22.45
15701;BMP180;7950;42.744;23.174;2023-05-29T09:50:54;94200.88;;;22.26
15701;BMP180;7950;42.744;23.174;2023-05-29T09:53:27;94194.69;;;22.13
15701;BMP180;7950;42.744;23.174;2023-05-29T09:55:57;94187.13;;;21.95
15701;BMP180;7950;42.744;23.174;2023-05-29T09:58:28;94187.31;;;22.10
15701;BMP180;7950;42.744;23.174;2023-05-29T10:00:57;94184.41;;;22.36
15701;BMP180;7950;42.744;23.174;2023-05-29T10:03:25;94179.59;;;22.50
15701;BMP180;7950;42.744;23.174;2023-05-29T10:05:58;94188.66;;;22.37
15701;BMP180;7950;42.744;23.174;2023-05-29T10:08:30;94183.28;;;22.25
15701;BMP180;7950;42.744;23.174;2023-05-29T10:11:02;94186.53;;;22.30
15701;BMP180;7950;42.744;23.174;2023-05-29T10:13:37;94187.41;;;22.34
15701;BMP180;7950;42.744;23.174;2023-05-29T10:16:11;94181.66;;;22.65
15701;BMP180;7950;42.744;23.174;2023-05-29T10:18:44;94177.69;;;22.83
15701;BMP180;7950;42.744;23.174;2023-05-29T10:21:18;94176.03;;;22.90
15701;BMP180;7950;42.744;23.174;2023-05-29T10:23:49;94173.72;;;23.01
15701;BMP180;7950;42.744;23.174;2023-05-29T10:26:21;94167.81;;;23.07
15701;BMP180;7950;42.744;23.174;2023-05-29T10:28:58;94164.34;;;23.07
15701;BMP180;7950;42.744;23.174;2023-05-29T10:31:35;94165.13;;;23.07
15701;BMP180;7950;42.744;23.174;2023-05-29T10:34:20;94160.91;;;23.06
15701;BMP180;7950;42.744;23.174;2023-05-29T10:37:03;94159.94;;;23.23
15701;BMP180;7950;42.744;23.174;2023-05-29T10:39:32;94160.47;;;23.41
15701;BMP180;7950;42.744;23.174;2023-05-29T10:42:02;94164.59;;;23.38
15701;BMP180;7950;42.744;23.174;2023-05-29T10:44:40;94156.94;;;23.37
15701;BMP180;7950;42.744;23.174;2023-05-29T10:47:09;94160.59;;;23.44
15701;BMP180;7950;42.744;23.174;2023-05-29T10:49:49;94165.28;;;23.59
15701;BMP180;7950;42.744;23.174;2023-05-29T10:52:20;94149.78;;;23.41
15701;BMP180;7950;42.744;23.174;2023-05-29T10:54:54;94157.13;;;23.32
15701;BMP180;7950;42.744;23.174;2023-05-29T10:57:24;94147.56;;;23.43
15701;BMP180;7950;42.744;23.174;2023-05-29T11:00:06;94145.63;;;23.43
15701;BMP180;7950;42.744;23.174;2023-05-29T11:02:40;94121.53;;;23.55
15701;BMP180;7950;42.744;23.174;2023-05-29T11:05:22;94125.28;;;23.90
15701;BMP180;7950;42.744;23.174;2023-05-29T11:08:01;94115.66;;;24.01
15701;BMP180;7950;42.744;23.174;2023-05-29T11:10:59;94126.22;;;23.58
15701;BMP180;7950;42.744;23.174;2023-05-29T11:13:33;94121.88;;;23.54
15701;BMP180;7950;42.744;23.174;2023-05-29T11:16:11;94113.34;;;23.76
15701;BMP180;7950;42.744;23.174;2023-05-29T11:18:44;94107.38;;;24.06
15701;BMP180;7950;42.744;23.174;2023-05-29T11:21:27;94102.13;;;24.37
15701;BMP180;7950;42.744;23.174;2023-05-29T11:24:00;94104.78;;;24.37
15701;BMP180;7950;42.744;23.174;2023-05-29T11:26:37;94099.19;;;24.42
15701;BMP180;7950;42.744;23.174;2023-05-29T11:29:06;94098.31;;;24.38
15701;BMP180;7950;42.744;23.174;2023-05-29T11:31:40;94097.94;;;24.24
15701;BMP180;7950;42.744;23.174;2023-05-29T11:34:14;94099.28;;;24.18
15701;BMP180;7950;42.744;23.174;2023-05-29T11:36:44;94094.06;;;24.10
15701;BMP180;7950;42.744;23.174;2023-05-29T11:39:14;94105.13;;;24.08
15701;BMP180;7950;42.744;23.174;2023-05-29T11:41:42;94099.72;;;23.81
15701;BMP180;7950;42.744;23.174;2023-05-29T11:44:14;94093.78;;;23.87
15701;BMP180;7950;42.744;23.174;2023-05-29T11:46:42;94089.69;;;24.17
15701;BMP180;7950;42.744;23.174;2023-05-29T11:49:11;94090.50;;;24.33
15701;BMP180;7950;42.744;23.174;2023-05-29T11:51:42;94098.31;;;24.38
15701;BMP180;7950;42.744;23.174;2023-05-29T11:54:13;94096.03;;;24.68
15701;BMP180;7950;42.744;23.174;2023-05-29T11:56:42;94091.72;;;24.79
15701;BMP180;7950;42.744;23.174;2023-05-29T11:59:11;94083.66;;;24.63
15701;BMP180;7950;42.744;23.174;2023-05-29T12:01:40;94082.78;;;24.16
15701;BMP180;7950;42.744;23.174;2023-05-29T12:04:15;94088.88;;;23.89
15701;BMP180;7950;42.744;23.174;2023-05-29T12:06:44;94080.22;;;23.68
15701;BMP180;7950;42.744;23.174;2023-05-29T12:09:25;94088.72;;;23.70
15701;BMP180;7950;42.744;23.174;2023-05-29T12:12:01;94077.16;;;23.54
15701;BMP180;7950;42.744;23.174;2023-05-29T12:14:30;94083.88;;;23.36
15701;BMP180;7950;42.744;23.174;2023-05-29T12:16:58;94075.19;;;23.27
15701;BMP180;7950;42.744;23.174;2023-05-29T12:19:27;94076.50;;;23.09
15701;BMP180;7950;42.744;23.174;2023-05-29T12:21:57;94085.44;;;23.01
15701;BMP180;7950;42.744;23.174;2023-05-29T12:24:27;94087.88;;;23.18
15701;BMP180;7950;42.744;23.174;2023-05-29T12:27:09;94088.75;;;22.98
15701;BMP180;7950;42.744;23.174;2023-05-29T12:29:37;94090.09;;;22.80
15701;BMP180;7950;42.744;23.174;2023-05-29T12:32:10;94104.75;;;22.50
15701;BMP180;7950;42.744;23.174;2023-05-29T12:34:39;94097.44;;;22.26
15701;BMP180;7950;42.744;23.174;2023-05-29T12:37:10;94115.38;;;22.05
15701;BMP180;7950;42.744;23.174;2023-05-29T12:39:42;94116.19;;;21.85
15701;BMP180;7950;42.744;23.174;2023-05-29T12:42:11;94145.19;;;21.46
15701;BMP180;7950;42.744;23.174;2023-05-29T12:44:42;94141.81;;;20.99
15701;BMP180;7950;42.744;23.174;2023-05-29T12:47:14;94125.53;;;20.84
15701;BMP180;7950;42.744;23.174;2023-05-29T12:49:43;94140.69;;;20.54
15701;BMP180;7950;42.744;23.174;2023-05-29T12:52:12;94141.19;;;20.48
15701;BMP180;7950;42.744;23.174;2023-05-29T12:54:44;94124.78;;;20.03
15701;BMP180;7950;42.744;23.174;2023-05-29T12:57:12;94140.91;;;20.24
15701;BMP180;7950;42.744;23.174;2023-05-29T12:59:41;94134.75;;;20.40
15701;BMP180;7950;42.744;23.174;2023-05-29T13:02:09;94140.84;;;20.58
15701;BMP180;7950;42.744;23.174;2023-05-29T13:04:38;94141.78;;;20.62
15701;BMP180;7950;42.744;23.174;2023-05-29T13:07:08;94140.03;;;20.57
15701;BMP180;7950;42.744;23.174;2023-05-29T13:09:36;94137.69;;;20.64
15701;BMP180;7950;42.744;23.174;2023-05-29T13:12:07;94138.75;;;20.72
15701;BMP180;7950;42.744;23.174;2023-05-29T13:14:36;94136.22;;;20.84
15701;BMP180;7950;42.744;23.174;2023-05-29T13:17:05;94132.03;;;21.12
15701;BMP180;7950;42.744;23.174;2023-05-29T13:19:34;94133.94;;;21.11
15701;BMP180;7950;42.744;23.174;2023-05-29T13:22:03;94129.84;;;21.14
15701;BMP180;7950;42.744;23.174;2023-05-29T13:24:31;94139.53;;;21.18
15701;BMP180;7950;42.744;23.174;2023-05-29T13:27:00;94137.22;;;21.08
15701;BMP180;7950;42.744;23.174;2023-05-29T13:29:31;94138.00;;;21.09
15701;BMP180;7950;42.744;23.174;2023-05-29T13:32:00;94140.66;;;21.09
15701;BMP180;7950;42.744;23.174;2023-05-29T13:34:28;94141.94;;;21.03
15701;BMP180;7950;42.744;23.174;2023-05-29T13:36:57;94135.31;;;21.09
15701;BMP180;7950;42.744;23.174;2023-05-29T13:39:28;94134.97;;;21.19
15701;BMP180;7950;42.744;23.174;2023-05-29T13:41:57;94126.53;;;21.37
15701;BMP180;7950;42.744;23.174;2023-05-29T13:44:25;94126.00;;;21.52
15701;BMP180;7950;42.744;23.174;2023-05-29T13:46:55;94119.31;;;21.38
15701;BMP180;7950;42.744;23.174;2023-05-29T13:49:25;94116.56;;;21.26
15701;BMP180;7950;42.744;23.174;2023-05-29T13:51:54;94116.75;;;21.50
15701;BMP180;7950;42.744;23.174;2023-05-29T13:54:23;94114.22;;;21.74
15701;BMP180;7950;42.744;23.174;2023-05-29T13:56:51;94102.09;;;21.97
15701;BMP180;7950;42.744;23.174;2023-05-29T13:59:20;94096.16;;;22.12
15701;BMP180;7950;42.744;23.174;2023-05-29T14:01:48;94104.06;;;22.08
15701;BMP180;7950;42.744;23.174;2023-05-29T14:04:18;94107.59;;;22.00
15701;BMP180;7950;42.744;23.174;2023-05-29T14:06:47;94101.66;;;21.95
15701;BMP180;7950;42.744;23.174;2023-05-29T14:09:15;94107.66;;;21.92
15701;BMP180;7950;42.744;23.174;2023-05-29T14:11:46;94099.38;;;22.05
15701;BMP180;7950;42.744;23.174;2023-05-29T14:14:15;94099.16;;;22.10
15701;BMP180;7950;42.744;23.174;2023-05-29T14:16:43;94097.66;;;22.01
15701;BMP180;7950;42.744;23.174;2023-05-29T14:19:12;94096.53;;;21.90
15701;BMP180;7950;42.744;23.174;2023-05-29T14:21:43;94107.59;;;21.80
15701;BMP180;7950;42.744;23.174;2023-05-29T14:24:12;94106.69;;;21.76
15701;BMP180;7950;42.744;23.174;2023-05-29T14:26:42;94103.59;;;21.65